Time;durP1;ratioP1;P1;durP2;ratioP2;P2;SDS_P1;SDS_P2;PMS_P1;PMS_P2;Temp;Humidity;BMP_temperature;BMP_pressure;BME280_temperature;BME280_humidity;BME280_pressure;Samples;Min_cycle;Max_cycle;Signal;HPM_P1;HPM_P2
2023/09/19 00:00:31;;;;;;;14.00;1.88;;;;;;;15.10;100.00;100578.69;5004544;28;20441;-67
2023/09/19 00:03:01;;;;;;;11.38;1.70;;;;;;;15.08;100.00;100576.25;5002371;28;20038;-67
2023/09/19 00:05:34;;;;;;;11.95;2.20;;;;;;;15.11;100.00;100575.88;4986745;28;20099;-67
2023/09/19 00:08:00;;;;;;;11.55;1.85;;;;;;;15.12;100.00;100577.47;4987583;28;20038;-67
2023/09/19 00:10:31;;;;;;;17.33;2.95;;;;;;;15.02;100.00;100581.44;4984473;28;21000;-66
2023/09/19 00:12:59;;;;;;;14.35;2.17;;;;;;;15.05;100.00;100579.28;4981729;28;20077;-67
2023/09/19 00:15:28;;;;;;;15.32;3.25;;;;;;;15.02;100.00;100584.06;4987550;28;20078;-67
2023/09/19 00:17:55;;;;;;;10.15;1.50;;;;;;;14.95;100.00;100584.81;5001953;28;20069;-67
2023/09/19 00:20:22;;;;;;;11.70;2.10;;;;;;;14.90;100.00;100592.41;4987989;28;20759;-67
2023/09/19 00:22:51;;;;;;;9.93;1.67;;;;;;;14.89;100.00;100590.78;4984193;28;21380;-67
2023/09/19 00:25:17;;;;;;;18.30;2.28;;;;;;;14.88;100.00;100590.97;4986574;28;20035;-67
2023/09/19 00:27:44;;;;;;;10.52;2.10;;;;;;;14.89;100.00;100593.41;4987724;28;20030;-67
2023/09/19 00:30:15;;;;;;;16.73;2.05;;;;;;;14.87;100.00;100595.41;4990151;28;20049;-66
2023/09/19 00:32:42;;;;;;;9.88;2.22;;;;;;;14.81;100.00;100590.94;4984605;28;20034;-67
2023/09/19 00:35:11;;;;;;;13.80;2.00;;;;;;;14.77;100.00;100594.91;5002240;28;20034;-67
2023/09/19 00:37:39;;;;;;;11.80;2.10;;;;;;;14.81;100.00;100590.13;5006139;28;20049;-67
2023/09/19 00:40:12;;;;;;;19.58;1.85;;;;;;;14.77;100.00;100594.91;4985649;28;20034;-67
2023/09/19 00:42:47;;;;;;;17.90;2.35;;;;;;;14.72;100.00;100597.28;4987318;28;20144;-66
2023/09/19 00:45:15;;;;;;;11.75;2.00;;;;;;;14.72;100.00;100603.31;4999793;28;20125;-67
2023/09/19 00:47:43;;;;;;;10.77;2.30;;;;;;;14.68;100.00;100604.69;4988476;28;20671;-66
2023/09/19 00:50:10;;;;;;;11.18;2.20;;;;;;;14.73;100.00;100597.09;4988263;28;20035;-67
2023/09/19 00:52:40;;;;;;;19.70;2.38;;;;;;;14.76;100.00;100601.13;5003791;28;20042;-67
2023/09/19 00:55:08;;;;;;;15.38;2.22;;;;;;;14.81;100.00;100603.19;5003812;28;20081;-67
2023/09/19 00:57:36;;;;;;;11.55;2.63;;;;;;;14.73;100.00;100620.59;5005453;28;20401;-67
2023/09/19 01:00:07;;;;;;;13.27;1.67;;;;;;;14.71;100.00;100619.13;4981583;28;20061;-67
2023/09/19 01:02:33;;;;;;;18.67;2.42;;;;;;;14.67;100.00;100615.28;4990409;28;20183;-67
2023/09/19 01:04:59;;;;;;;11.18;2.20;;;;;;;14.64;100.00;100615.69;4987659;28;20500;-67
2023/09/19 01:07:25;;;;;;;17.30;1.92;;;;;;;14.70;100.00;100623.56;4970651;28;20652;-67
2023/09/19 01:09:52;;;;;;;12.88;2.40;;;;;;;14.62;100.00;100626.31;4990335;28;20034;-67
2023/09/19 01:12:24;;;;;;;13.73;2.15;;;;;;;14.66;100.00;100629.34;4990816;28;20142;-67
2023/09/19 01:15:11;;;;;;;12.88;2.15;;;;;;;14.63;100.00;100632.31;5000791;28;20672;-67
2023/09/19 01:18:21;;;;;;;12.65;2.22;;;;;;;14.58;100.00;100632.91;4987979;28;20507;-67
2023/09/19 01:20:55;;;;;;;17.40;2.60;;;;;;;14.62;100.00;100639.34;4986030;28;20038;-67
2023/09/19 01:23:37;;;;;;;12.48;2.08;;;;;;;14.59;100.00;100642.31;5000131;28;20046;-67
2023/09/19 01:26:21;;;;;;;10.63;1.98;;;;;;;14.55;100.00;100634.03;5000411;28;20064;-67
2023/09/19 01:28:54;;;;;;;11.95;2.08;;;;;;;14.54;100.00;100639.41;4980791;28;20042;-67
2023/09/19 01:31:23;;;;;;;12.10;2.00;;;;;;;14.53;100.00;100650.88;4996639;28;20485;-68
2023/09/19 01:34:04;;;;;;;13.32;2.10;;;;;;;14.53;100.00;100654.28;4999046;28;20049;-67
2023/09/19 01:36:35;;;;;;;7.25;1.80;;;;;;;14.54;100.00;100655.06;4988296;28;20043;-66
2023/09/19 01:39:05;;;;;;;12.20;1.90;;;;;;;14.49;100.00;100658.25;4987684;28;20424;-67
2023/09/19 01:42:09;;;;;;;8.13;1.95;;;;;;;14.47;100.00;100662.06;4985825;28;20042;-67
2023/09/19 01:44:59;;;;;;;14.55;2.22;;;;;;;14.50;100.00;100664.28;4977893;28;20141;-67
2023/09/19 01:47:39;;;;;;;10.73;2.30;;;;;;;14.47;100.00;100665.47;4997618;28;20062;-67
2023/09/19 01:50:06;;;;;;;9.05;2.05;;;;;;;14.50;100.00;100665.06;4989250;28;20042;-67
2023/09/19 01:52:38;;;;;;;8.90;2.10;;;;;;;14.56;100.00;100671.34;4986500;28;20255;-67
2023/09/19 01:55:10;;;;;;;12.77;2.15;;;;;;;14.46;100.00;100673.47;4987336;28;20104;-66
2023/09/19 01:57:52;;;;;;;13.73;2.95;;;;;;;14.49;100.00;100673.91;4986742;28;20175;-67
2023/09/19 02:00:21;;;;;;;7.45;2.08;;;;;;;14.42;100.00;100678.25;4988188;28;20035;-67
2023/09/19 02:02:47;;;;;;;18.42;2.33;;;;;;;14.47;100.00;100675.09;5002481;28;20058;-67
2023/09/19 02:05:22;;;;;;;11.57;2.22;;;;;;;14.41;100.00;100671.44;5003640;28;20125;-67
2023/09/19 02:07:48;;;;;;;11.20;2.10;;;;;;;14.48;100.00;100674.09;5005694;28;20404;-67
2023/09/19 02:10:14;;;;;;;17.02;3.15;;;;;;;14.35;100.00;100682.56;5007292;28;20053;-67
2023/09/19 02:12:39;;;;;;;11.55;2.17;;;;;;;14.39;100.00;100679.44;4988518;28;20104;-67
2023/09/19 02:15:07;;;;;;;15.27;2.55;;;;;;;14.48;100.00;100684.53;4985513;28;20076;-67
2023/09/19 02:17:33;;;;;;;11.82;2.67;;;;;;;14.45;98.78;100687.47;4990755;28;20050;-67
2023/09/19 02:20:02;;;;;;;12.43;2.05;;;;;;;14.41;99.11;100689.69;4986108;28;20412;-67
2023/09/19 02:22:27;;;;;;;12.13;2.35;;;;;;;14.46;97.80;100682.09;4990047;28;20127;-67
2023/09/19 02:24:53;;;;;;;11.43;1.80;;;;;;;14.34;97.72;100691.41;5007984;28;20047;-67
2023/09/19 02:27:19;;;;;;;10.57;1.95;;;;;;;14.32;97.32;100694.19;5005648;28;20408;-67
2023/09/19 02:29:45;;;;;;;12.38;2.17;;;;;;;14.29;96.63;100691.13;5004692;28;20050;-67
2023/09/19 02:32:10;;;;;;;11.15;3.08;;;;;;;14.36;96.78;100694.63;4987122;28;20077;-67
2023/09/19 02:34:36;;;;;;;9.27;2.10;;;;;;;14.40;97.08;100688.06;4977503;28;20034;-67
2023/09/19 02:37:08;;;;;;;10.75;2.25;;;;;;;14.29;97.95;100694.53;4980209;28;20038;-67
2023/09/19 02:39:34;;;;;;;10.93;2.03;;;;;;;14.25;98.25;100692.50;4986388;28;20033;-67
2023/09/19 02:42:00;;;;;;;8.02;1.77;;;;;;;14.18;98.89;100688.03;4987563;28;20469;-67
2023/09/19 02:44:25;;;;;;;17.45;2.38;;;;;;;14.25;97.94;100692.50;4987137;28;20085;-67
2023/09/19 02:46:51;;;;;;;15.05;3.15;;;;;;;14.26;98.62;100692.31;5004776;28;20038;-67
2023/09/19 02:49:20;;;;;;;12.60;1.70;;;;;;;14.23;97.87;100695.28;5006839;28;20026;-66
2023/09/19 02:51:47;;;;;;;13.00;2.17;;;;;;;14.24;96.84;100689.09;4995283;28;20421;-66
2023/09/19 02:54:13;;;;;;;10.63;2.08;;;;;;;14.34;96.79;100699.22;4995950;28;20549;-67
2023/09/19 02:56:39;;;;;;;15.68;2.30;;;;;;;14.32;96.88;100696.00;4989676;28;20089;-67
2023/09/19 02:59:05;;;;;;;12.63;1.85;;;;;;;14.21;97.80;100699.88;4992726;28;20038;-67
2023/09/19 03:01:32;;;;;;;14.07;1.98;;;;;;;14.18;97.97;100713.25;4993878;28;20042;-67
2023/09/19 03:03:58;;;;;;;14.90;2.35;;;;;;;14.12;97.78;100703.56;5004842;28;20420;-67
2023/09/19 03:06:23;;;;;;;16.70;2.42;;;;;;;14.15;97.62;100713.66;5001149;28;20040;-67
2023/09/19 03:08:51;;;;;;;13.82;1.95;;;;;;;14.02;98.57;100716.88;5008234;28;20404;-67
2023/09/19 03:11:21;;;;;;;11.93;2.22;;;;;;;14.09;98.01;100720.38;4988434;28;20085;-67
2023/09/19 03:13:54;;;;;;;13.15;2.13;;;;;;;14.13;97.54;100713.03;4988542;28;20026;-67
2023/09/19 03:16:25;;;;;;;13.32;1.98;;;;;;;14.17;97.49;100715.06;5009708;28;20046;-67
2023/09/19 03:18:53;;;;;;;7.70;1.87;;;;;;;14.07;98.26;100701.50;5006083;28;20037;-67
2023/09/19 03:21:19;;;;;;;15.27;2.10;;;;;;;14.01;98.86;100710.88;5005476;28;20538;-67
2023/09/19 03:23:45;;;;;;;17.08;2.00;;;;;;;14.00;99.17;100711.84;4994506;28;20046;-67
2023/09/19 03:26:12;;;;;;;14.60;2.40;;;;;;;14.01;97.58;100708.25;4992789;28;20097;-67
2023/09/19 03:28:38;;;;;;;6.47;1.95;;;;;;;14.10;97.62;100719.38;4993843;28;20042;-67
2023/09/19 03:31:06;;;;;;;20.75;3.88;;;;;;;14.03;98.33;100713.28;4990917;28;20042;-67
2023/09/19 03:33:34;;;;;;;13.85;2.22;;;;;;;14.11;97.89;100712.38;5011237;28;20123;-67
2023/09/19 03:36:04;;;;;;;12.00;2.22;;;;;;;14.04;97.30;100717.50;4990646;28;20032;-67
2023/09/19 03:38:32;;;;;;;10.50;2.00;;;;;;;13.98;98.62;100713.03;4984280;28;20126;-67
2023/09/19 03:40:58;;;;;;;12.45;2.22;;;;;;;14.09;98.79;100709.97;5003397;28;20038;-67
2023/09/19 03:43:24;;;;;;;11.15;1.77;;;;;;;13.97;99.05;100714.81;5005253;28;20033;-67
2023/09/19 03:45:50;;;;;;;10.40;2.40;;;;;;;13.89;99.60;100714.91;4980635;28;20050;-67
2023/09/19 03:48:17;;;;;;;12.82;1.92;;;;;;;13.93;99.52;100712.75;4990755;28;20153;-67
2023/09/19 03:50:46;;;;;;;10.38;1.70;;;;;;;13.86;100.00;100717.84;4991880;28;20087;-67
2023/09/19 03:53:12;;;;;;;15.50;2.00;;;;;;;14.00;100.00;100713.66;4991215;28;20065;-67
2023/09/19 03:55:38;;;;;;;12.02;1.95;;;;;;;13.92;100.00;100711.13;4987361;28;20117;-67
2023/09/19 03:58:05;;;;;;;12.90;2.25;;;;;;;13.97;100.00;100711.41;5002564;28;20408;-67
2023/09/19 04:00:31;;;;;;;12.10;2.00;;;;;;;13.93;100.00;100710.13;4989904;28;20052;-67
2023/09/19 04:02:58;;;;;;;11.95;2.70;;;;;;;13.93;100.00;100708.34;5009306;28;20046;-67
2023/09/19 04:05:24;;;;;;;14.00;3.22;;;;;;;13.94;100.00;100711.78;5005627;28;20092;-66
2023/09/19 04:07:50;;;;;;;12.88;2.10;;;;;;;13.94;100.00;100707.34;4988601;28;20511;-67
2023/09/19 04:10:15;;;;;;;10.50;1.70;;;;;;;13.93;100.00;100703.13;4988221;28;20046;-67
2023/09/19 04:12:49;;;;;;;14.20;2.22;;;;;;;13.82;100.00;100707.00;4989009;28;20532;-67
2023/09/19 04:15:16;;;;;;;12.98;2.40;;;;;;;13.79;100.00;100702.13;4989371;28;20054;-67
2023/09/19 04:17:42;;;;;;;19.55;2.72;;;;;;;13.76;100.00;100702.50;4988807;28;20049;-67
2023/09/19 04:20:08;;;;;;;16.90;2.45;;;;;;;13.73;100.00;100708.06;4973717;28;20450;-67
2023/09/19 04:22:33;;;;;;;12.00;3.05;;;;;;;13.72;100.00;100710.84;4987096;28;20129;-67
2023/09/19 04:25:00;;;;;;;13.00;2.13;;;;;;;13.81;100.00;100709.78;5002587;28;20070;-67
2023/09/19 04:27:25;;;;;;;14.85;2.33;;;;;;;13.88;100.00;100710.69;5003740;28;20042;-67
2023/09/19 04:29:52;;;;;;;18.63;2.88;;;;;;;13.80;100.00;100713.38;4986674;28;20035;-67
2023/09/19 04:32:18;;;;;;;10.10;2.05;;;;;;;13.74;100.00;100719.31;4990071;28;20124;-67
2023/09/19 04:34:43;;;;;;;18.20;3.13;;;;;;;13.76;100.00;100715.50;5000030;28;20444;-67
2023/09/19 04:37:09;;;;;;;13.52;2.67;;;;;;;13.67;100.00;100715.78;4975249;28;20042;-67
2023/09/19 04:39:34;;;;;;;13.63;2.67;;;;;;;13.68;100.00;100713.00;4988906;28;20046;-67
2023/09/19 04:42:00;;;;;;;17.63;2.05;;;;;;;13.78;100.00;100712.75;4988066;28;20053;-67
2023/09/19 04:44:25;;;;;;;17.23;2.03;;;;;;;13.85;99.93;100705.03;4989129;28;20219;-66
2023/09/19 04:46:51;;;;;;;19.98;2.30;;;;;;;13.79;100.00;100707.34;4990524;28;20026;-67
2023/09/19 04:49:18;;;;;;;18.75;3.83;;;;;;;13.79;100.00;100709.97;4992935;28;20030;-67
2023/09/19 04:51:43;;;;;;;13.88;2.35;;;;;;;13.71;100.00;100712.66;5002565;28;20045;-67
2023/09/19 04:54:09;;;;;;;14.68;2.40;;;;;;;13.71;100.00;100717.88;4986313;28;20038;-66
2023/09/19 04:56:34;;;;;;;15.10;2.58;;;;;;;13.92;100.00;100726.75;5004809;28;20056;-67
2023/09/19 04:59:00;;;;;;;16.00;2.50;;;;;;;13.77;98.74;100718.97;4992951;28;20042;-66
2023/09/19 05:01:26;;;;;;;24.83;3.40;;;;;;;13.78;98.87;100728.38;4988246;28;20034;-67
2023/09/19 05:03:52;;;;;;;11.52;2.22;;;;;;;13.80;99.31;100737.63;4987691;28;20044;-66
2023/09/19 05:06:21;;;;;;;17.30;2.40;;;;;;;13.85;98.37;100744.13;4986194;28;20046;-67
2023/09/19 05:08:51;;;;;;;13.52;2.33;;;;;;;13.90;98.36;100749.59;4987585;28;20106;-67
2023/09/19 05:11:22;;;;;;;17.90;2.58;;;;;;;13.76;98.71;100759.03;4990762;28;20579;-67
2023/09/19 05:13:49;;;;;;;17.05;2.80;;;;;;;13.76;99.12;100759.03;5006811;28;20057;-67
2023/09/19 05:16:16;;;;;;;12.15;1.88;;;;;;;13.76;98.63;100766.84;4988884;28;20424;-67
2023/09/19 05:18:42;;;;;;;12.65;2.13;;;;;;;13.85;98.11;100765.78;4987478;28;20385;-66
2023/09/19 05:21:07;;;;;;;21.23;3.13;;;;;;;13.83;98.00;100765.13;4989232;28;22108;-67
2023/09/19 05:23:33;;;;;;;15.60;2.20;;;;;;;13.80;98.50;100779.31;4986809;28;20049;-67
2023/09/19 05:25:59;;;;;;;10.25;2.10;;;;;;;13.77;97.91;100771.88;4989295;28;20031;-67
2023/09/19 05:28:26;;;;;;;15.73;2.22;;;;;;;13.88;97.10;100782.84;4985959;28;20121;-67
2023/09/19 05:30:53;;;;;;;13.50;2.13;;;;;;;13.90;96.06;100786.06;4985267;28;20039;-67
2023/09/19 05:33:19;;;;;;;17.45;2.35;;;;;;;13.96;96.39;100796.63;4988360;28;20125;-67
2023/09/19 05:35:47;;;;;;;15.77;2.35;;;;;;;13.96;95.88;100790.59;4985386;28;20117;-67
2023/09/19 05:38:13;;;;;;;19.65;2.42;;;;;;;13.93;96.70;100802.16;4988446;28;20100;-66
2023/09/19 05:40:42;;;;;;;11.30;2.17;;;;;;;13.94;97.03;100808.22;4988823;28;20053;-67
2023/09/19 05:43:08;;;;;;;10.07;1.67;;;;;;;14.08;95.31;100804.78;4992494;28;20061;-67
2023/09/19 05:45:35;;;;;;;15.00;2.20;;;;;;;14.10;95.20;100796.81;4990753;28;20038;-67
2023/09/19 05:48:09;;;;;;;13.60;2.30;;;;;;;14.09;95.98;100800.38;4986534;28;20050;-66
2023/09/19 05:50:34;;;;;;;16.55;2.20;;;;;;;14.10;95.55;100812.44;4984670;28;20107;-67
2023/09/19 05:52:59;;;;;;;11.63;1.80;;;;;;;14.02;95.98;100818.56;4987007;28;20050;-67
2023/09/19 05:55:25;;;;;;;20.33;2.38;;;;;;;14.11;95.89;100814.88;4990684;28;20042;-67
2023/09/19 05:57:51;;;;;;;20.83;2.72;;;;;;;14.17;94.75;100826.41;4988933;28;20121;-67
2023/09/19 06:00:24;;;;;;;18.77;2.13;;;;;;;14.21;95.19;100817.22;4986921;28;20089;-66
2023/09/19 06:02:53;;;;;;;;;;;;;;;14.22;95.17;100821.44;4992405;28;20503;-67
2023/09/19 06:05:19;;;;;;;22.13;3.33;;;;;;;14.14;96.18;100821.53;5003059;28;20017;-67
2023/09/19 06:07:45;;;;;;;15.13;2.30;;;;;;;14.16;96.39;100820.34;5000725;28;20049;-67
2023/09/19 06:10:10;;;;;;;12.05;1.88;;;;;;;14.09;97.22;100816.03;4988454;28;20033;-67
2023/09/19 06:12:40;;;;;;;15.13;1.98;;;;;;;14.05;97.81;100809.56;4988263;28;20057;-67
2023/09/19 06:15:08;;;;;;;17.27;2.60;;;;;;;14.13;97.59;100814.72;4983476;28;20034;-67
2023/09/19 06:17:37;;;;;;;13.93;2.42;;;;;;;14.16;98.66;100804.69;5006046;28;20124;-67
2023/09/19 06:20:12;;;;;;;14.52;2.20;;;;;;;14.17;99.12;100808.13;4988643;28;20129;-67
2023/09/19 06:22:39;;;;;;;19.02;2.22;;;;;;;14.16;98.93;100802.09;5005890;28;20049;-67
2023/09/19 06:25:05;;;;;;;13.48;2.22;;;;;;;14.11;99.09;100803.63;4990149;28;20497;-67
2023/09/19 06:27:30;;;;;;;17.55;2.00;;;;;;;14.12;98.89;100811.25;4990286;28;20062;-67
2023/09/19 06:29:56;;;;;;;14.27;2.13;;;;;;;14.21;98.78;100804.19;4992595;28;20057;-67
2023/09/19 06:32:27;;;;;;;11.27;1.80;;;;;;;14.21;98.97;100797.16;4993825;28;20054;-66
2023/09/19 06:34:54;;;;;;;8.70;2.20;;;;;;;14.29;98.48;100809.28;5002932;28;20042;-67
2023/09/19 06:37:20;;;;;;;16.10;2.88;;;;;;;14.28;98.40;100806.88;4990692;28;20401;-67
2023/09/19 06:39:49;;;;;;;17.33;3.35;;;;;;;14.27;98.02;100813.88;4990955;28;20041;-67
2023/09/19 06:42:17;;;;;;;15.95;1.70;;;;;;;14.33;97.99;100810.53;4993181;28;20042;-66
2023/09/19 06:44:43;;;;;;;14.07;2.67;;;;;;;14.43;97.28;100818.13;4995352;28;20045;-66
2023/09/19 06:47:09;;;;;;;17.30;4.00;;;;;;;14.53;96.92;100821.25;4990050;28;20034;-67
2023/09/19 06:49:35;;;;;;;18.55;4.20;;;;;;;14.48;96.78;100815.75;4993248;28;20038;-66
2023/09/19 06:52:02;;;;;;;13.15;3.20;;;;;;;14.54;97.16;100809.00;4989317;28;20026;-66
2023/09/19 06:54:31;;;;;;;18.83;2.30;;;;;;;14.62;96.70;100821.19;4989915;28;20030;-67
2023/09/19 06:56:58;;;;;;;13.90;2.40;;;;;;;14.67;96.00;100814.41;4991525;28;20026;-67
2023/09/19 06:59:24;;;;;;;13.80;1.98;;;;;;;14.73;95.48;100823.31;4990925;28;20096;-67
2023/09/19 07:01:50;;;;;;;13.02;2.28;;;;;;;14.82;94.78;100814.41;4987053;28;20203;-68
2023/09/19 07:04:16;;;;;;;11.30;2.72;;;;;;;14.77;94.93;100824.59;4990489;28;20046;-67
2023/09/19 07:06:42;;;;;;;14.50;2.20;;;;;;;14.84;94.89;100820.25;4987767;28;20096;-67
2023/09/19 07:09:08;;;;;;;20.50;2.75;;;;;;;14.95;94.54;100816.34;4990965;28;20042;-66
2023/09/19 07:11:34;;;;;;;11.23;1.63;;;;;;;14.94;93.93;100827.81;4991801;28;20563;-67
2023/09/19 07:14:01;;;;;;;14.52;1.92;;;;;;;15.03;94.03;100831.09;4990116;28;20065;-67
2023/09/19 07:16:29;;;;;;;17.65;2.28;;;;;;;15.11;93.23;100833.63;4987964;28;20046;-67
2023/09/19 07:18:56;;;;;;;12.63;2.28;;;;;;;15.18;93.64;100835.28;4986330;28;20041;-67
2023/09/19 07:21:22;;;;;;;12.85;2.28;;;;;;;15.19;92.00;100833.50;5005834;28;20074;-67
2023/09/19 07:23:48;;;;;;;15.70;2.00;;;;;;;15.32;92.17;100844.06;4989008;28;20049;-67
2023/09/19 07:26:13;;;;;;;10.80;1.55;;;;;;;15.34;92.07;100843.88;4990048;28;20034;-66
2023/09/19 07:28:39;;;;;;;11.20;1.77;;;;;;;15.49;91.74;100844.63;4990363;28;20145;-67
2023/09/19 07:31:05;;;;;;;11.38;2.78;;;;;;;15.62;90.82;100851.78;4987676;28;20046;-67
2023/09/19 07:33:31;;;;;;;16.83;2.65;;;;;;;15.76;91.37;100847.50;4988108;28;20030;-67
2023/09/19 07:35:56;;;;;;;19.92;2.60;;;;;;;15.78;90.22;100840.28;4989736;28;20516;-67
2023/09/19 07:38:22;;;;;;;12.02;2.35;;;;;;;15.93;88.24;100848.03;4987244;28;20049;-67
2023/09/19 07:40:48;;;;;;;16.63;2.13;;;;;;;16.07;87.63;100839.28;4988196;28;20084;-67
2023/09/19 07:43:13;;;;;;;13.55;2.28;;;;;;;16.17;87.36;100840.75;4989917;28;20042;-67
2023/09/19 07:45:39;;;;;;;10.57;2.35;;;;;;;16.28;86.60;100835.78;4987952;28;20038;-66
2023/09/19 07:48:06;;;;;;;19.83;2.47;;;;;;;16.21;86.95;100834.13;4987273;28;20117;-67
2023/09/19 07:50:34;;;;;;;12.70;2.47;;;;;;;16.30;86.07;100830.38;4988646;28;20095;-67
2023/09/19 07:52:59;;;;;;;16.15;2.20;;;;;;;16.42;85.63;100838.47;5002418;28;20053;-67
2023/09/19 07:55:25;;;;;;;15.65;2.72;;;;;;;16.68;84.14;100845.66;4987847;28;20046;-66
2023/09/19 07:57:54;;;;;;;16.50;2.10;;;;;;;16.78;82.79;100842.66;4985446;28;20042;-67
2023/09/19 08:00:20;;;;;;;7.85;1.80;;;;;;;16.83;82.75;100848.16;4987420;28;20045;-66
2023/09/19 08:02:45;;;;;;;12.23;2.05;;;;;;;16.89;83.33;100840.31;4990957;28;20046;-67
2023/09/19 08:05:15;;;;;;;13.48;1.90;;;;;;;17.00;82.59;100838.16;4985903;28;20042;-66
2023/09/19 08:07:42;;;;;;;13.35;1.92;;;;;;;17.20;81.65;100836.38;4987834;28;20476;-67
2023/09/19 08:10:12;;;;;;;12.02;1.98;;;;;;;17.24;80.48;100828.94;4987503;28;20413;-67
2023/09/19 08:12:45;;;;;;;8.10;1.90;;;;;;;17.35;80.02;100838.00;4989181;28;20488;-67
2023/09/19 08:15:15;;;;;;;12.52;1.75;;;;;;;17.27;79.86;100847.69;4987501;28;20069;-67
2023/09/19 08:17:40;;;;;;;16.50;1.75;;;;;;;17.48;80.30;100840.66;5000208;28;20037;-67
2023/09/19 08:20:07;;;;;;;13.60;1.95;;;;;;;17.45;79.66;100854.16;4985048;28;20038;-67
2023/09/19 08:22:33;;;;;;;14.43;2.33;;;;;;;17.41;79.84;100852.94;5002374;28;20050;-67
2023/09/19 08:24:58;;;;;;;15.40;2.10;;;;;;;17.69;79.07;100860.63;4986585;28;20042;-67
2023/09/19 08:27:27;;;;;;;13.40;1.95;;;;;;;17.89;78.58;100876.38;4989051;28;20496;-67
2023/09/19 08:29:53;;;;;;;13.63;1.90;;;;;;;17.80;78.58;100864.44;4987577;28;20037;-67
2023/09/19 08:32:23;;;;;;;14.80;1.98;;;;;;;18.01;77.48;100866.91;4970643;28;20508;-67
2023/09/19 08:34:49;;;;;;;14.88;1.85;;;;;;;18.02;77.16;100859.84;4987637;28;20042;-67
2023/09/19 08:37:17;;;;;;;12.20;1.98;;;;;;;18.02;77.12;100865.88;4989236;28;20046;-67
2023/09/19 08:39:42;;;;;;;18.38;2.33;;;;;;;18.20;76.06;100865.25;5003957;28;20129;-67
2023/09/19 08:42:09;;;;;;;15.38;2.33;;;;;;;18.43;75.77;100869.25;4991081;28;20042;-67
2023/09/19 08:44:40;;;;;;;16.48;1.85;;;;;;;18.52;74.29;100865.41;4989960;28;20026;-67
2023/09/19 08:47:15;;;;;;;13.73;2.13;;;;;;;18.65;74.76;100862.72;4991066;28;20041;-67
2023/09/19 08:49:40;;;;;;;10.57;1.80;;;;;;;18.72;73.90;100875.81;4986113;28;20097;-67
2023/09/19 08:52:20;;;;;;;11.90;2.15;;;;;;;18.48;74.18;100859.75;5006796;28;20030;-67
2023/09/19 08:54:48;;;;;;;10.55;2.00;;;;;;;18.40;73.69;100872.28;4988259;28;20038;-67
2023/09/19 08:57:21;;;;;;;14.05;2.10;;;;;;;18.38;74.30;100863.81;4986162;28;20113;-67
2023/09/19 08:59:49;;;;;;;12.18;2.13;;;;;;;18.70;73.65;100867.34;5001792;28;20105;-67
2023/09/19 09:02:15;;;;;;;10.15;2.20;;;;;;;19.08;72.66;100857.91;5006052;28;20544;-67
2023/09/19 09:04:42;;;;;;;10.00;1.75;;;;;;;19.14;72.43;100863.13;4989163;28;20052;-67
2023/09/19 09:07:11;;;;;;;11.98;1.50;;;;;;;19.15;70.82;100861.31;5005098;28;20062;-67
2023/09/19 09:09:42;;;;;;;16.48;2.30;;;;;;;18.86;72.15;100856.41;4988874;28;20441;-67
2023/09/19 09:12:12;;;;;;;17.23;2.10;;;;;;;18.74;72.09;100871.19;4988566;28;20022;-67
2023/09/19 09:14:38;;;;;;;10.55;2.03;;;;;;;18.79;71.30;100873.19;4987868;28;20528;-67
2023/09/19 09:17:03;;;;;;;10.23;1.40;;;;;;;18.55;72.95;100861.53;5000839;28;20040;-67
2023/09/19 09:19:31;;;;;;;11.95;2.00;;;;;;;18.55;73.41;100872.03;4991429;28;20054;-67
2023/09/19 09:22:09;;;;;;;7.28;1.70;;;;;;;18.25;72.99;100860.22;5004676;28;20030;-67
2023/09/19 09:24:37;;;;;;;12.55;1.98;;;;;;;18.03;74.67;100856.22;4983467;28;20042;-67
2023/09/19 09:27:05;;;;;;;11.02;1.77;;;;;;;18.09;73.72;100863.25;4987454;28;20069;-67
2023/09/19 09:29:49;;;;;;;15.90;1.75;;;;;;;17.87;75.97;100863.47;4988692;28;20038;-67
2023/09/19 09:32:20;;;;;;;10.63;2.00;;;;;;;17.84;75.38;100865.69;4985474;28;21480;-67
2023/09/19 09:34:49;;;;;;;11.57;2.90;;;;;;;17.96;75.26;100864.06;4975415;28;20061;-67
2023/09/19 09:37:16;;;;;;;12.77;2.22;;;;;;;18.23;75.38;100851.75;4980840;28;20627;-67
2023/09/19 09:39:51;;;;;;;11.25;2.17;;;;;;;18.27;74.59;100854.75;4981367;28;20040;-67
2023/09/19 09:42:31;;;;;;;12.93;1.80;;;;;;;18.27;74.00;100857.38;4985069;28;20063;-67
2023/09/19 09:45:14;;;;;;;9.60;1.70;;;;;;;18.56;73.69;100860.53;4984878;28;20062;-67
2023/09/19 09:47:49;;;;;;;;;;;;;;;18.72;73.54;100854.00;4981669;28;20047;-67
2023/09/19 09:50:44;;;;;;;16.08;2.38;;;;;;;18.91;72.98;100852.34;4983177;28;20003;-67
2023/09/19 09:53:33;;;;;;;8.02;1.83;;;;;;;19.20;72.21;100848.34;4981768;28;20112;-67
2023/09/19 09:56:06;;;;;;;10.30;1.83;;;;;;;19.20;71.70;100853.59;4983922;28;20066;-67
2023/09/19 09:58:35;;;;;;;;;;;;;;;19.33;71.07;100855.34;4984407;28;20042;-67
2023/09/19 10:01:15;;;;;;;10.77;2.13;;;;;;;19.20;70.13;100864.91;4985435;28;20355;-66
2023/09/19 10:03:44;;;;;;;13.35;2.38;;;;;;;19.03;68.74;100861.19;4962416;28;20039;-68
2023/09/19 10:11:32;;;;;;;9.07;1.98;;;;;;;18.48;71.06;100857.13;4987734;28;20042;-66
2023/09/19 10:14:01;;;;;;;16.98;2.05;;;;;;;18.70;69.85;100841.06;4987329;28;20033;-67
2023/09/19 10:16:31;;;;;;;11.80;1.70;;;;;;;18.84;69.75;100834.00;4982895;28;20042;-66
2023/09/19 10:19:00;;;;;;;7.78;2.22;;;;;;;19.02;71.94;100841.97;4985162;28;20034;-66
2023/09/19 10:21:29;;;;;;;13.38;1.88;;;;;;;18.89;69.11;100823.63;4980487;28;20761;-67
2023/09/19 10:23:59;;;;;;;11.68;2.53;;;;;;;19.02;68.19;100836.72;4998570;28;20038;-68
2023/09/19 10:26:30;;;;;;;8.95;2.33;;;;;;;19.21;69.55;100836.78;4998104;28;20489;-68
2023/09/19 10:28:59;;;;;;;13.38;2.45;;;;;;;19.17;67.86;100828.53;4978265;28;20046;-67
2023/09/19 10:31:26;;;;;;;8.40;1.65;;;;;;;19.26;69.63;100834.34;5000589;28;20081;-67
2023/09/19 10:33:53;;;;;;;13.93;2.17;;;;;;;19.28;67.12;100836.75;4999557;28;20591;-67
2023/09/19 10:36:20;;;;;;;9.07;1.83;;;;;;;19.12;68.65;100838.06;4982647;28;20145;-67
2023/09/19 10:38:47;;;;;;;14.32;2.33;;;;;;;19.24;66.86;100831.94;4986680;28;20053;-67
2023/09/19 10:41:16;;;;;;;10.63;1.75;;;;;;;19.25;68.99;100840.63;4986079;28;20054;-67
2023/09/19 10:43:45;;;;;;;11.55;1.85;;;;;;;19.26;68.76;100835.13;4981343;28;20140;-67
2023/09/19 10:46:12;;;;;;;12.23;1.88;;;;;;;19.47;68.76;100824.50;4996141;28;20556;-66
2023/09/19 10:48:40;;;;;;;10.68;1.98;;;;;;;19.62;66.48;100819.72;4984253;28;20073;-66
2023/09/19 10:51:13;;;;;;;8.98;1.92;;;;;;;19.63;66.79;100819.50;4963608;28;20122;-67
2023/09/19 10:53:50;;;;;;;12.55;1.88;;;;;;;19.71;68.27;100830.78;4981752;28;20136;-67
2023/09/19 10:56:32;;;;;;;20.27;3.53;;;;;;;19.88;66.43;100823.97;4976337;28;20050;-66
2023/09/19 10:59:16;;;;;;;10.20;2.50;;;;;;;19.59;64.84;100831.47;4979036;28;20078;-67
2023/09/19 11:01:50;;;;;;;10.77;2.22;;;;;;;19.40;64.28;100832.41;5000507;28;20049;-67
2023/09/19 11:04:34;;;;;;;11.48;2.38;;;;;;;19.70;65.28;100834.41;4980467;28;20058;-67
2023/09/19 11:07:04;;;;;;;9.77;1.77;;;;;;;19.78;62.77;100824.47;4984902;28;20501;-67
2023/09/19 11:09:57;;;;;;;12.20;2.03;;;;;;;19.80;62.03;100832.16;4987260;28;20555;-67
2023/09/19 11:12:29;;;;;;;;;;;;;;;19.56;62.72;100823.22;4988918;28;20030;-66
2023/09/19 11:14:55;;;;;;;9.85;2.05;;;;;;;19.61;64.19;100837.31;5001908;28;20434;-67
2023/09/19 11:17:21;;;;;;;13.27;2.00;;;;;;;19.75;61.85;100845.13;4983047;28;20050;-67
2023/09/19 11:22:58;;;;;;;13.90;2.03;;;;;;;20.11;61.99;100843.59;4990333;28;20392;-67
2023/09/19 11:25:29;;;;;;;10.43;1.95;;;;;;;19.75;60.77;100843.31;4998733;28;20053;-67
2023/09/19 11:28:16;;;;;;;12.15;3.22;;;;;;;19.55;60.76;100832.94;4987758;28;20078;-67
2023/09/19 11:30:43;;;;;;;9.82;1.90;;;;;;;19.65;61.82;100838.50;4986307;28;20050;-67
2023/09/19 11:33:28;;;;;;;8.50;1.55;;;;;;;19.81;62.17;100831.13;4987405;28;20037;-67